createdAt,value
2023-04-09T00:01:16.394Z,99729.06
2023-04-09T00:03:44.247Z,99727.84
2023-04-09T00:06:13.041Z,99730.27
2023-04-09T00:08:41.304Z,99726.39
2023-04-09T00:11:09.683Z,99722.75
2023-04-09T00:13:39.698Z,99723.48
2023-04-09T00:16:08.919Z,99718.90
2023-04-09T00:18:36.969Z,99720.58
2023-04-09T00:21:05.061Z,99721.25
2023-04-09T00:23:36.700Z,99722.60
2023-04-09T00:26:05.095Z,99724.14
2023-04-09T00:28:33.004Z,99721.38
2023-04-09T00:31:00.758Z,99723.66
2023-04-09T00:33:28.553Z,99722.46
2023-04-09T00:35:56.339Z,99723.02
2023-04-09T00:38:24.645Z,99719.13
2023-04-09T00:40:52.939Z,99723.75
2023-04-09T00:43:20.790Z,99723.09
2023-04-09T00:45:49.075Z,99723.59
2023-04-09T00:48:17.675Z,99721.84
2023-04-09T00:50:45.494Z,99721.58
2023-04-09T00:53:17.950Z,99716.23
2023-04-09T00:55:46.379Z,99716.98
2023-04-09T00:58:14.706Z,99715.58
2023-04-09T01:00:42.736Z,99721.09
2023-04-09T01:03:10.734Z,99719.82
2023-04-09T01:05:49.635Z,99720.15
2023-04-09T01:08:53.499Z,99718.56
2023-04-09T01:11:52.744Z,99717.45
2023-04-09T01:14:42.151Z,99719.52
2023-04-09T01:17:17.387Z,99714.91
2023-04-09T01:20:02.370Z,99713.30
2023-04-09T01:23:05.471Z,99716.17
2023-04-09T01:26:13.747Z,99720.24
2023-04-09T01:28:46.635Z,99720.20
2023-04-09T01:31:18.664Z,99720.49
2023-04-09T01:33:47.740Z,99719.44
2023-04-09T01:36:16.624Z,99721.68
2023-04-09T01:38:48.786Z,99724.27
2023-04-09T01:41:21.633Z,99722.65
2023-04-09T01:43:51.691Z,99719.80
2023-04-09T01:46:22.152Z,99719.66
2023-04-09T01:48:51.359Z,99722.27
2023-04-09T01:51:19.704Z,99727.04
2023-04-09T01:53:49.507Z,99729.34
2023-04-09T01:56:17.777Z,99729.10
2023-04-09T01:58:46.004Z,99728.55
2023-04-09T02:01:24.399Z,99726.77
2023-04-09T02:04:01.024Z,99728.86
2023-04-09T02:06:39.555Z,99727.45
2023-04-09T02:09:09.865Z,99731.98
2023-04-09T02:11:42.462Z,99732.80
2023-04-09T02:14:12.537Z,99732.45
2023-04-09T02:16:40.805Z,99735.85
2023-04-09T02:19:08.573Z,99730.46
2023-04-09T02:21:36.567Z,99731.50
2023-04-09T02:24:04.397Z,99732.20
2023-04-09T02:26:32.322Z,99730.27
2023-04-09T02:29:00.127Z,99733.21
2023-04-09T02:31:27.886Z,99730.27
2023-04-09T02:33:55.724Z,99730.58
2023-04-09T02:36:23.646Z,99728.16
2023-04-09T02:38:51.683Z,99726.06
2023-04-09T02:41:19.659Z,99723.81
2023-04-09T02:43:47.488Z,99727.33
2023-04-09T02:46:15.449Z,99728.23
2023-04-09T02:48:43.192Z,99727.07
2023-04-09T02:51:11.014Z,99725.08
2023-04-09T02:53:40.842Z,99728.33
2023-04-09T02:56:08.687Z,99732.45
2023-04-09T02:58:36.498Z,99731.70
2023-04-09T03:01:04.920Z,99731.48
2023-04-09T03:03:33.365Z,99732.54
2023-04-09T03:06:01.209Z,99731.64
2023-04-09T03:08:28.909Z,99732.16
2023-04-09T03:10:56.723Z,99735.14
2023-04-09T03:13:28.478Z,99735.69
2023-04-09T03:15:56.660Z,99735.16
2023-04-09T03:18:24.406Z,99739.33
2023-04-09T03:20:52.234Z,99743.75
2023-04-09T03:23:20.320Z,99743.27
2023-04-09T03:25:48.174Z,99739.31
2023-04-09T03:28:16.026Z,99736.95
2023-04-09T03:30:44.178Z,99733.81
2023-04-09T03:33:11.878Z,99735.02
2023-04-09T03:35:39.782Z,99730.73
2023-04-09T03:38:07.709Z,99736.17
2023-04-09T03:40:36.633Z,99736.75
2023-04-09T03:43:04.569Z,99734.70
2023-04-09T03:45:32.726Z,99734.80
2023-04-09T03:48:00.798Z,99734.55
2023-04-09T03:50:28.832Z,99733.98
2023-04-09T03:52:56.691Z,99733.73
2023-04-09T03:55:24.416Z,99733.62
2023-04-09T03:57:52.675Z,99731.77
2023-04-09T04:00:20.815Z,99732.61
2023-04-09T04:02:48.692Z,99728.69
2023-04-09T04:05:16.792Z,99725.63
2023-04-09T04:07:45.131Z,99727.65
2023-04-09T04:10:12.994Z,99730.02
2023-04-09T04:12:40.929Z,99734.77
2023-04-09T04:15:09.837Z,99734.51
2023-04-09T04:17:37.796Z,99737.01
2023-04-09T04:20:06.357Z,99736.38
2023-04-09T04:22:35.399Z,99742.21
2023-04-09T04:25:04.711Z,99742.19
2023-04-09T04:27:32.639Z,99743.50
2023-04-09T04:30:02.256Z,99745.48
2023-04-09T04:32:30.592Z,99744.14
2023-04-09T04:34:58.371Z,99750.60
2023-04-09T04:37:26.219Z,99752.16
2023-04-09T04:39:54.216Z,99755.52
2023-04-09T04:42:23.226Z,99754.91
2023-04-09T04:44:51.253Z,99761.23
2023-04-09T04:47:19.593Z,99755.64
2023-04-09T04:49:47.638Z,99756.14
2023-04-09T04:52:17.668Z,99757.52
2023-04-09T04:54:45.715Z,99758.70
2023-04-09T04:57:14.003Z,99757.98
2023-04-09T04:59:41.990Z,99759.89
2023-04-09T05:02:10.333Z,99756.88
2023-04-09T05:04:38.543Z,99753.53
2023-04-09T05:07:06.373Z,99758.48
2023-04-09T05:09:34.967Z,99759.58
2023-04-09T05:12:03.150Z,99765.15
2023-04-09T05:14:31.663Z,99765.19
2023-04-09T05:16:59.685Z,99763.91
2023-04-09T05:19:27.455Z,99759.11
2023-04-09T05:21:55.175Z,99763.24
2023-04-09T05:24:22.865Z,99763.34
2023-04-09T05:26:51.328Z,99762.04
2023-04-09T05:29:19.069Z,99763.08
2023-04-09T05:31:46.856Z,99768.44
2023-04-09T05:34:14.707Z,99770.59
2023-04-09T05:36:42.540Z,99770.66
2023-04-09T05:39:11.106Z,99773.94
2023-04-09T05:41:39.169Z,99779.63
2023-04-09T05:44:06.932Z,99778.36
2023-04-09T05:46:34.723Z,99778.59
2023-04-09T05:49:02.638Z,99773.54
2023-04-09T05:51:30.459Z,99777.77
2023-04-09T05:53:59.489Z,99780.91
2023-04-09T05:56:28.231Z,99781.88
2023-04-09T05:58:56.148Z,99781.68
2023-04-09T06:01:24.112Z,99782.08
2023-04-09T06:03:54.062Z,99785.63
2023-04-09T06:06:24.866Z,99787.05
2023-04-09T06:08:52.887Z,99790.70
2023-04-09T06:11:21.860Z,99792.96
2023-04-09T06:13:50.347Z,99795.79
2023-04-09T06:16:18.985Z,99796.84
2023-04-09T06:18:49.776Z,99798.52
2023-04-09T06:21:17.548Z,99798.83
2023-04-09T06:23:45.331Z,99798.14
2023-04-09T06:26:13.080Z,99797.52
2023-04-09T06:28:41.448Z,99803.83
2023-04-09T06:31:09.916Z,99801.67
2023-04-09T06:33:37.630Z,99804.61
2023-04-09T06:36:05.625Z,99811.57
2023-04-09T06:38:33.526Z,99807.54
2023-04-09T06:41:01.242Z,99808.73
2023-04-09T06:43:29.554Z,99811.13
2023-04-09T06:45:57.977Z,99809.71
2023-04-09T06:48:25.807Z,99809.39
2023-04-09T06:50:53.629Z,99814.42
2023-04-09T06:53:21.528Z,99817.05
2023-04-09T06:55:50.105Z,99816.39
2023-04-09T06:58:18.280Z,99818.19
2023-04-09T07:00:46.000Z,99822.60
2023-04-09T07:03:14.896Z,99818.90
2023-04-09T07:05:43.193Z,99819.36
2023-04-09T07:08:11.857Z,99824.89
2023-04-09T07:10:40.197Z,99824.52
2023-04-09T07:13:07.993Z,99828.54
2023-04-09T07:15:44.992Z,99830.16
2023-04-09T07:18:16.240Z,99827.30
2023-04-09T07:20:44.421Z,99832.13
2023-04-09T07:23:12.793Z,99835.15
2023-04-09T07:25:40.898Z,99831.13
2023-04-09T07:28:08.670Z,99832.09
2023-04-09T07:30:36.415Z,99834.25
2023-04-09T07:33:06.947Z,99835.85
2023-04-09T07:35:35.476Z,99838.52
2023-04-09T07:38:03.814Z,99833.86
2023-04-09T07:40:34.746Z,99839.20
2023-04-09T07:43:04.555Z,99838.98
2023-04-09T07:45:32.357Z,99840.39
2023-04-09T07:48:00.979Z,99845.20
2023-04-09T07:50:30.438Z,99847.80
2023-04-09T07:52:58.731Z,99849.52
2023-04-09T07:55:26.550Z,99844.81
2023-04-09T07:57:54.818Z,99846.92
2023-04-09T08:00:22.908Z,99842.52
2023-04-09T08:02:51.148Z,99836.33
2023-04-09T08:05:21.987Z,99837.70
2023-04-09T08:07:53.687Z,99835.41
2023-04-09T08:10:21.518Z,99838.38
2023-04-09T08:12:50.380Z,99840.40
2023-04-09T08:15:18.170Z,99842.72
2023-04-09T08:17:45.950Z,99842.40
2023-04-09T08:20:14.429Z,99843.12
2023-04-09T08:22:42.867Z,99838.60
2023-04-09T08:25:10.942Z,99833.02
2023-04-09T08:27:39.810Z,99833.81
2023-04-09T08:30:08.650Z,99838.35
2023-04-09T08:32:37.029Z,99832.33
2023-04-09T08:35:06.432Z,99832.73
2023-04-09T08:37:35.411Z,99832.64
2023-04-09T08:40:03.676Z,99835.97
2023-04-09T08:42:34.160Z,99838.21
2023-04-09T08:45:04.910Z,99837.54
2023-04-09T08:47:35.320Z,99836.26
2023-04-09T08:50:04.478Z,99834.76
2023-04-09T08:52:34.226Z,99835.30
2023-04-09T08:55:02.263Z,99838.63
2023-04-09T08:57:30.146Z,99839.98
2023-04-09T08:59:59.031Z,99834.72
2023-04-09T09:02:27.464Z,99830.86
2023-04-09T09:05:00.912Z,99831.27
2023-04-09T09:07:32.100Z,99829.57
2023-04-09T09:10:03.802Z,99829.88
2023-04-09T09:12:40.601Z,99829.10
2023-04-09T09:15:29.667Z,99831.46
2023-04-09T09:18:00.130Z,99826.48
2023-04-09T09:20:28.033Z,99825.84
2023-04-09T09:22:57.192Z,99827.25
2023-04-09T09:25:26.776Z,99827.04
2023-04-09T09:27:54.872Z,99823.69
2023-04-09T09:30:27.600Z,99824.18
2023-04-09T09:33:10.718Z,99819.16
2023-04-09T09:35:54.183Z,99816.45
2023-04-09T09:38:22.176Z,99817.02
2023-04-09T09:40:50.407Z,99813.37
2023-04-09T09:43:18.818Z,99817.20
2023-04-09T09:45:48.301Z,99813.68
2023-04-09T09:48:16.534Z,99812.82
2023-04-09T09:50:47.731Z,99811.48
2023-04-09T09:53:23.166Z,99810.11
2023-04-09T09:55:57.350Z,99807.64
2023-04-09T09:58:32.089Z,99807.70
2023-04-09T10:01:01.455Z,99802.55
2023-04-09T10:03:32.240Z,99805.45
2023-04-09T10:06:03.121Z,99805.81
2023-04-09T10:08:34.181Z,99805.71
2023-04-09T10:11:02.750Z,99801.89
2023-04-09T10:13:45.430Z,99797.89
2023-04-09T10:16:14.380Z,99800.55
2023-04-09T10:18:43.751Z,99794.63
2023-04-09T10:21:24.775Z,99794.73
2023-04-09T10:23:53.785Z,99791.23
2023-04-09T10:26:22.295Z,99788.05
2023-04-09T10:29:08.862Z,99786.16
2023-04-09T10:31:50.039Z,99786.40
2023-04-09T10:34:20.532Z,99784.10
2023-04-09T10:36:55.364Z,99782.27
2023-04-09T10:39:28.625Z,99779.48
2023-04-09T10:41:58.506Z,99782.11
2023-04-09T10:44:27.845Z,99778.62
2023-04-09T10:46:56.253Z,99779.12
2023-04-09T10:49:27.079Z,99776.34
2023-04-09T10:52:02.421Z,99772.30
2023-04-09T10:54:33.927Z,99770.77
2023-04-09T10:57:07.929Z,99766.57
2023-04-09T10:59:39.153Z,99764.39
2023-04-09T11:02:18.643Z,99763.48
2023-04-09T11:05:06.435Z,99762.77
2023-04-09T11:07:40.658Z,99756.91
2023-04-09T11:10:09.096Z,99757.41
2023-04-09T11:12:36.899Z,99756.67
2023-04-09T11:15:05.836Z,99753.88
2023-04-09T11:17:37.040Z,99756.86
2023-04-09T11:20:06.052Z,99753.61
2023-04-09T11:22:34.357Z,99752.36
2023-04-09T11:25:03.140Z,99754.80
2023-04-09T11:27:30.884Z,99756.83
2023-04-09T11:30:01.769Z,99758.32
2023-04-09T11:32:31.440Z,99758.76
2023-04-09T11:34:59.839Z,99755.90
2023-04-09T11:37:28.286Z,99760.23
2023-04-09T11:39:57.973Z,99764.55
2023-04-09T11:42:25.922Z,99767.34
2023-04-09T11:44:54.260Z,99767.44
2023-04-09T11:47:22.299Z,99766.48
2023-04-09T11:49:50.708Z,99767.10
2023-04-09T11:52:19.357Z,99768.20
2023-04-09T11:54:50.417Z,99771.67
2023-04-09T11:57:18.091Z,99776.10
2023-04-09T11:59:46.371Z,99773.71
2023-04-09T12:02:19.476Z,99774.48
2023-04-09T12:04:51.233Z,99777.48
2023-04-09T12:07:19.091Z,99775.81
2023-04-09T12:09:48.775Z,99777.21
2023-04-09T12:12:21.491Z,99778.95
2023-04-09T12:14:51.996Z,99779.92
2023-04-09T12:17:21.305Z,99777.41
2023-04-09T12:19:49.356Z,99778.37
2023-04-09T12:22:17.175Z,99781.66
2023-04-09T12:24:45.044Z,99780.66
2023-04-09T12:27:13.920Z,99780.10
2023-04-09T12:29:41.679Z,99779.46
2023-04-09T12:32:09.451Z,99779.92
2023-04-09T12:34:37.549Z,99776.64
2023-04-09T12:37:05.626Z,99779.66
2023-04-09T12:39:34.407Z,99776.09
2023-04-09T12:42:02.471Z,99775.75
2023-04-09T12:44:33.210Z,99780.41
2023-04-09T12:47:01.275Z,99779.13
2023-04-09T12:49:29.577Z,99776.73
2023-04-09T12:51:57.347Z,99773.16
2023-04-09T12:54:25.168Z,99770.53
2023-04-09T12:56:53.128Z,99765.95
2023-04-09T12:59:21.337Z,99766.30
2023-04-09T13:01:49.193Z,99762.78
2023-04-09T13:04:17.369Z,99761.64
2023-04-09T13:06:45.720Z,99757.90
2023-04-09T13:09:13.434Z,99755.77
2023-04-09T13:11:41.303Z,99761.32
2023-04-09T13:14:13.554Z,99762.08
2023-04-09T13:16:41.966Z,99758.85
2023-04-09T13:19:10.382Z,99758.89
2023-04-09T13:21:38.084Z,99757.43
2023-04-09T13:24:06.922Z,99752.16
2023-04-09T13:26:34.633Z,99749.98
2023-04-09T13:29:03.527Z,99747.20
2023-04-09T13:31:31.372Z,99746.81
2023-04-09T13:33:59.267Z,99745.76
2023-04-09T13:36:27.829Z,99743.66
2023-04-09T13:38:56.444Z,99744.54
2023-04-09T13:41:29.777Z,99741.66
2023-04-09T13:43:59.887Z,99740.93
2023-04-09T13:46:28.377Z,99743.02
2023-04-09T13:48:56.145Z,99744.46
2023-04-09T13:51:24.237Z,99743.98
2023-04-09T13:53:52.825Z,99744.16
2023-04-09T13:56:20.896Z,99742.70
2023-04-09T13:58:49.110Z,99744.44
2023-04-09T14:01:17.746Z,99743.24
2023-04-09T14:03:45.691Z,99743.95
2023-04-09T14:06:13.723Z,99743.55
2023-04-09T14:08:42.290Z,99743.26
2023-04-09T14:11:14.123Z,99739.80
2023-04-09T14:13:41.869Z,99741.55
2023-04-09T14:16:10.018Z,99736.27
2023-04-09T14:18:39.436Z,99738.98
2023-04-09T14:21:09.982Z,99738.58
2023-04-09T14:23:41.501Z,99734.67
2023-04-09T14:26:09.819Z,99733.65
2023-04-09T14:28:38.066Z,99730.02
2023-04-09T14:31:06.418Z,99729.08
2023-04-09T14:33:34.228Z,99726.21
2023-04-09T14:36:02.521Z,99727.66
2023-04-09T14:38:30.307Z,99725.23
2023-04-09T14:40:58.376Z,99728.20
2023-04-09T14:43:26.320Z,99723.98
2023-04-09T14:45:54.786Z,99722.92
2023-04-09T14:48:23.100Z,99722.02
2023-04-09T14:50:51.805Z,99720.66
2023-04-09T14:53:19.562Z,99721.98
2023-04-09T14:55:47.764Z,99722.68
2023-04-09T14:58:15.523Z,99721.89
2023-04-09T15:00:44.993Z,99721.91
2023-04-09T15:03:13.396Z,99722.36
2023-04-09T15:05:41.525Z,99722.59
2023-04-09T15:08:09.328Z,99724.31
2023-04-09T15:10:37.880Z,99728.30
2023-04-09T15:13:05.970Z,99729.57
2023-04-09T15:15:34.060Z,99730.70
2023-04-09T15:18:05.914Z,99724.90
2023-04-09T15:20:39.232Z,99729.47
2023-04-09T15:23:07.134Z,99727.58
2023-04-09T15:25:34.973Z,99730.33
2023-04-09T15:28:03.591Z,99724.99
2023-04-09T15:30:32.192Z,99724.59
2023-04-09T15:33:00.615Z,99730.17
2023-04-09T15:35:29.467Z,99727.80
2023-04-09T15:37:57.743Z,99727.92
2023-04-09T15:40:25.556Z,99727.80
2023-04-09T15:42:53.314Z,99724.87
2023-04-09T15:45:21.461Z,99723.23
2023-04-09T15:47:49.268Z,99725.13
2023-04-09T15:50:17.076Z,99721.70
2023-04-09T15:52:45.286Z,99722.59
2023-04-09T15:55:13.016Z,99720.69
2023-04-09T15:57:40.868Z,99721.10
2023-04-09T16:00:10.693Z,99718.61
2023-04-09T16:02:39.112Z,99717.77
2023-04-09T16:05:07.752Z,99715.91
2023-04-09T16:07:35.951Z,99716.90
2023-04-09T16:10:04.964Z,99721.24
2023-04-09T16:12:32.851Z,99720.64
2023-04-09T16:15:01.638Z,99718.27
2023-04-09T16:17:34.523Z,99716.59
2023-04-09T16:20:08.623Z,99720.14
2023-04-09T16:22:37.083Z,99721.81
2023-04-09T16:25:05.373Z,99722.57
2023-04-09T16:27:33.773Z,99720.36
2023-04-09T16:30:02.018Z,99725.50
2023-04-09T16:32:29.894Z,99721.45
2023-04-09T16:35:00.907Z,99724.61
2023-04-09T16:37:29.423Z,99723.97
2023-04-09T16:39:58.187Z,99721.90
2023-04-09T16:42:27.640Z,99728.45
2023-04-09T16:44:55.696Z,99728.29
2023-04-09T16:47:23.536Z,99725.79
2023-04-09T16:49:51.836Z,99726.19
2023-04-09T16:52:20.042Z,99728.35
2023-04-09T16:54:47.759Z,99726.43
2023-04-09T16:57:16.679Z,99726.30
2023-04-09T16:59:45.208Z,99728.77
2023-04-09T17:02:12.959Z,99734.29
2023-04-09T17:04:42.395Z,99731.73
2023-04-09T17:07:10.637Z,99734.08
2023-04-09T17:09:38.345Z,99736.83
2023-04-09T17:12:06.405Z,99745.89
2023-04-09T17:14:34.557Z,99747.34
2023-04-09T17:17:02.728Z,99750.17
2023-04-09T17:19:31.513Z,99751.62
2023-04-09T17:22:00.234Z,99755.63
2023-04-09T17:24:28.118Z,99758.55
2023-04-09T17:26:56.790Z,99756.91
2023-04-09T17:29:24.484Z,99758.95
2023-04-09T17:31:53.310Z,99765.92
2023-04-09T17:34:21.949Z,99768.82
2023-04-09T17:36:56.405Z,99770.67
2023-04-09T17:39:24.514Z,99773.74
2023-04-09T17:41:53.664Z,99775.87
2023-04-09T17:44:21.776Z,99778.75
2023-04-09T17:46:49.625Z,99781.09
2023-04-09T17:49:17.916Z,99784.14
2023-04-09T17:51:46.264Z,99784.52
2023-04-09T17:54:14.911Z,99784.59
2023-04-09T17:56:42.748Z,99790.48
2023-04-09T17:59:10.630Z,99791.64
2023-04-09T18:01:38.452Z,99796.45
2023-04-09T18:04:06.982Z,99798.67
2023-04-09T18:06:35.360Z,99802.15
2023-04-09T18:09:03.324Z,99806.23
2023-04-09T18:11:31.353Z,99808.73
2023-04-09T18:13:59.140Z,99811.19
2023-04-09T18:16:28.432Z,99815.07
2023-04-09T18:18:56.882Z,99817.08
2023-04-09T18:21:25.106Z,99816.79
2023-04-09T18:23:52.954Z,99817.42
2023-04-09T18:26:20.780Z,99821.46
2023-04-09T18:28:48.515Z,99820.91
2023-04-09T18:31:16.513Z,99817.33
2023-04-09T18:33:44.794Z,99817.23
2023-04-09T18:36:13.429Z,99821.19
2023-04-09T18:38:41.297Z,99822.16
2023-04-09T18:41:11.054Z,99821.80
2023-04-09T18:43:38.887Z,99827.76
2023-04-09T18:46:06.818Z,99827.55
2023-04-09T18:48:35.802Z,99825.05
2023-04-09T18:51:04.560Z,99827.77
2023-04-09T18:53:32.335Z,99828.73
2023-04-09T18:58:46.581Z,99828.74
2023-04-09T19:01:14.757Z,99823.89
2023-04-09T19:03:43.260Z,99826.19
2023-04-09T19:06:19.152Z,99822.98
2023-04-09T19:08:48.348Z,99822.95
2023-04-09T19:11:16.646Z,99820.20
2023-04-09T19:13:44.596Z,99818.01
2023-04-09T19:16:12.421Z,99819.23
2023-04-09T19:18:40.193Z,99820.54
2023-04-09T19:21:08.488Z,99816.39
2023-04-09T19:23:36.828Z,99820.48
2023-04-09T19:26:05.631Z,99820.66
2023-04-09T19:28:33.612Z,99823.37
2023-04-09T19:31:03.420Z,99821.95
2023-04-09T19:33:31.921Z,99825.59
2023-04-09T19:35:59.919Z,99825.48
2023-04-09T19:38:28.382Z,99820.66
2023-04-09T19:40:56.500Z,99825.03
2023-04-09T19:43:24.556Z,99824.81
2023-04-09T19:45:52.318Z,99822.52
2023-04-09T19:48:20.136Z,99823.69
2023-04-09T19:50:49.015Z,99823.39
2023-04-09T19:53:18.583Z,99825.00
2023-04-09T19:55:46.541Z,99825.69
2023-04-09T19:58:14.344Z,99826.00
2023-04-09T20:00:42.156Z,99827.75
2023-04-09T20:03:10.652Z,99830.30
2023-04-09T20:05:38.998Z,99833.44
2023-04-09T20:08:12.211Z,99833.58
2023-04-09T20:10:45.119Z,99832.86
2023-04-09T20:13:13.665Z,99831.23
2023-04-09T20:15:41.899Z,99833.75
2023-04-09T20:18:10.525Z,99833.94
2023-04-09T20:20:38.787Z,99833.20
2023-04-09T20:23:06.523Z,99830.02
2023-04-09T20:25:36.724Z,99830.27
2023-04-09T20:28:04.891Z,99829.80
2023-04-09T20:30:32.708Z,99824.55
2023-04-09T20:33:01.462Z,99821.44
2023-04-09T20:35:29.728Z,99816.90
2023-04-09T20:37:57.423Z,99820.25
2023-04-09T20:40:25.568Z,99815.89
2023-04-09T20:42:53.350Z,99814.31
2023-04-09T20:45:21.167Z,99808.73
2023-04-09T20:47:53.338Z,99808.55
2023-04-09T20:50:22.048Z,99805.75
2023-04-09T20:52:49.898Z,99808.19
2023-04-09T20:55:18.160Z,99811.13
2023-04-09T20:57:45.963Z,99812.09
2023-04-09T21:00:14.735Z,99809.67
2023-04-09T21:02:43.199Z,99808.84
2023-04-09T21:05:21.887Z,99805.52
2023-04-09T21:07:52.784Z,99799.92
2023-04-09T21:10:21.338Z,99800.11
2023-04-09T21:12:49.687Z,99798.06
2023-04-09T21:15:17.730Z,99801.48
2023-04-09T21:17:45.662Z,99798.74
2023-04-09T21:20:15.211Z,99794.95
2023-04-09T21:22:42.983Z,99793.67
2023-04-09T21:25:12.735Z,99794.40
2023-04-09T21:27:42.948Z,99796.33
2023-04-09T21:30:11.196Z,99794.80
2023-04-09T21:32:38.954Z,99793.14
2023-04-09T21:35:07.048Z,99789.82
2023-04-09T21:37:37.575Z,99790.91
2023-04-09T21:40:06.543Z,99787.98
2023-04-09T21:42:34.720Z,99784.70
2023-04-09T21:45:03.208Z,99785.82
2023-04-09T21:47:32.059Z,99788.33
2023-04-09T21:50:00.045Z,99787.73
2023-04-09T21:52:28.324Z,99786.41
2023-04-09T21:54:57.172Z,99789.11
2023-04-09T21:57:24.919Z,99785.86
2023-04-09T21:59:54.006Z,99785.27
2023-04-09T22:02:22.284Z,99784.17
2023-04-09T22:04:50.790Z,99785.77
2023-04-09T22:07:18.688Z,99784.54
2023-04-09T22:09:48.831Z,99784.20
2023-04-09T22:12:16.621Z,99781.50
2023-04-09T22:14:46.041Z,99783.23
2023-04-09T22:17:13.849Z,99782.36
2023-04-09T22:19:44.249Z,99784.27
2023-04-09T22:22:13.641Z,99781.29
2023-04-09T22:24:41.922Z,99782.70
2023-04-09T22:27:13.084Z,99780.81
2023-04-09T22:29:40.980Z,99781.67
2023-04-09T22:32:09.483Z,99780.20
2023-04-09T22:34:37.449Z,99784.94
2023-04-09T22:37:05.185Z,99781.42
2023-04-09T22:39:33.096Z,99780.35
2023-04-09T22:42:01.875Z,99780.84
2023-04-09T22:44:29.800Z,99779.06
2023-04-09T22:46:57.717Z,99778.49
2023-04-09T22:49:26.124Z,99780.23
2023-04-09T22:51:54.890Z,99777.21
2023-04-09T22:54:22.972Z,99775.45
2023-04-09T22:56:50.894Z,99779.98
2023-04-09T22:59:19.976Z,99779.06
2023-04-09T23:01:49.960Z,99780.94
2023-04-09T23:04:22.988Z,99780.35
2023-04-09T23:06:51.267Z,99779.59
2023-04-09T23:09:19.000Z,99782.52
2023-04-09T23:11:46.857Z,99778.95
2023-04-09T23:14:15.073Z,99775.36
2023-04-09T23:16:43.767Z,99778.83
2023-04-09T23:19:11.839Z,99777.77
2023-04-09T23:21:39.587Z,99775.64
2023-04-09T23:24:07.368Z,99773.52
2023-04-09T23:26:35.038Z,99771.21
2023-04-09T23:29:12.474Z,99771.05
2023-04-09T23:31:41.152Z,99769.59
2023-04-09T23:34:08.968Z,99768.02
2023-04-09T23:36:36.681Z,99768.66
2023-04-09T23:39:04.439Z,99768.99
2023-04-09T23:41:32.591Z,99764.27
2023-04-09T23:44:00.992Z,99764.95
2023-04-09T23:46:28.783Z,99762.50
2023-04-09T23:49:00.485Z,99756.84
2023-04-09T23:51:28.352Z,99754.72
2023-04-09T23:53:56.171Z,99755.08
2023-04-09T23:56:25.230Z,99753.73
2023-04-09T23:58:53.412Z,99746.37
